Sandra Hugh — WDD9019 — position and weather

sailwx.info

Track history (hours):
 
Tides and Currents Weather Stations Pressure Air Temp Water Temp Dewpoint Dewpoint Depression Visibility Wind Speed Wind Dir Waves Ship Positions

Sandra Hugh

Owner: Sortwell Inc., DBA AmNav Maritime Services, Oakland, CA. More information available from US FCC via Universal Licensing System and Coast Guard Vessel Documentation Center.

Last reported at 2015-Mar-26 18:32 UTC. Time now 2015-Mar-26 19:15 UTC.
Position N 37°49' W 122°19'.

Length 24 m; draft 4.9 m.

Type: Tug. MMSI: 367305920.

Date/timePositionNaut miles runAvg speedWind from/ knotsBaromVisibWave heightAir tempDewpointWater temp
2015-Mar-26 18:32N 37°49' W 122°19'0 0.0
2015-Mar-26 17:32N 37°49' W 122°19'0 0.0
2015-Mar-26 16:29N 37°49' W 122°19'0 0.0
2015-Mar-26 15:32N 37°49' W 122°19'0 0.0
2015-Mar-26 14:29N 37°49' W 122°19'0 0.0
2015-Mar-26 13:26N 37°49' W 122°19'0 0.0
2015-Mar-26 12:32N 37°49' W 122°19'0 0.0
2015-Mar-26 11:32N 37°49' W 122°19'0 0.0
2015-Mar-26 10:32N 37°49' W 122°19'0 0.0
2015-Mar-26 09:32N 37°49' W 122°19'0 0.0
2015-Mar-26 08:29N 37°49' W 122°19'0 0.0
2015-Mar-26 07:32N 37°49' W 122°19'0 0.0
2015-Mar-26 06:32N 37°49' W 122°19'0 0.0
2015-Mar-26 05:32N 37°49' W 122°19'0 0.0
2015-Mar-26 04:26N 37°49' W 122°19'0 0.0
2015-Mar-26 03:23N 37°49' W 122°19'0 0.4
2015-Mar-26 02:32N 37°49' W 122°19'0 0.0
2015-Mar-26 01:32N 37°49' W 122°19'0 0.4
2015-Mar-26 00:33N 37°49' W 122°19'0 0.0
2015-Mar-25 23:24N 37°49' W 122°19'0 0.0
2015-Mar-25 22:24N 37°49' W 122°19'0 0.0
2015-Mar-25 21:30N 37°49' W 122°19'0 0.0
2015-Mar-25 20:30N 37°49' W 122°19'0 0.0
2015-Mar-25 19:24N 37°49' W 122°19'0 0.0
2015-Mar-25 18:33N 37°49' W 122°19'0 0.0
2015-Mar-25 17:30N 37°49' W 122°19'0 0.0
2015-Mar-25 16:33N 37°49' W 122°19'0 0.0
2015-Mar-25 15:33N 37°49' W 122°19'0 0.0
2015-Mar-25 14:33N 37°49' W 122°19'0 0.0
2015-Mar-25 13:33N 37°49' W 122°19'0 0.0
2015-Mar-25 12:33N 37°49' W 122°19'0 0.0
2015-Mar-25 11:33N 37°49' W 122°19'0 0.0
2015-Mar-25 10:33N 37°49' W 122°19'0 0.0
2015-Mar-25 09:33N 37°49' W 122°19'0 0.0
2015-Mar-25 08:33N 37°49' W 122°19'0 0.0
2015-Mar-25 07:30N 37°49' W 122°19'0 0.0
2015-Mar-25 06:33N 37°49' W 122°19'0 0.0
2015-Mar-25 05:33N 37°49' W 122°19'0 0.0
2015-Mar-25 04:33N 37°49' W 122°19'0 0.0
2015-Mar-25 03:33N 37°49' W 122°19'0 0.0
2015-Mar-25 02:30N 37°49' W 122°19'0 0.0
2015-Mar-25 01:30N 37°49' W 122°19'0 0.3
2015-Mar-25 00:33N 37°49' W 122°19'2 1.6
2015-Mar-24 23:33N 37°48' W 122°21'2 1.8
2015-Mar-24 22:33N 37°49' W 122°19'0 0.0
2015-Mar-24 21:33N 37°49' W 122°19'0 0.0
2015-Mar-24 20:33N 37°49' W 122°19'0 0.0
2015-Mar-24 19:33N 37°49' W 122°19'0 0.0
2015-Mar-24 18:33N 37°49' W 122°19'0 0.0
2015-Mar-24 17:33N 37°49' W 122°19'3 2.8
2015-Mar-24 16:33N 37°50' W 122°22'5 4.8
2015-Mar-24 15:30N 37°55' W 122°22'1 0.8
2015-Mar-24 14:33N 37°54' W 122°22'3 2.9
2015-Mar-24 13:33N 37°53' W 122°25'2 1.8
2015-Mar-24 12:31N 37°54' W 122°23'0 0.0
2015-Mar-24 11:28N 37°54' W 122°23'0 0.0
2015-Mar-24 10:32N 37°54' W 122°23'1 1.2
2015-Mar-24 09:33N 37°54' W 122°22'0 0.0
2015-Mar-24 08:33N 37°54' W 122°22'6 5.9
2015-Mar-24 07:33N 37°49' W 122°20'1 1.1
2015-Mar-24 06:31N 37°49' W 122°19'0 0.0
2015-Mar-24 05:31N 37°49' W 122°19'0 0.0
2015-Mar-24 04:28N 37°49' W 122°19'3 2.8
2015-Mar-24 03:33N 37°50' W 122°22'4 4.4
2015-Mar-24 02:33N 37°54' W 122°23'1 0.7
2015-Mar-24 01:33N 37°55' W 122°22'5 5.5
2015-Mar-24 00:33N 37°49' W 122°21'2 2.0
2015-Mar-23 23:33N 37°49' W 122°19'0 0.0
2015-Mar-23 22:33N 37°49' W 122°19'1 1.2
2015-Mar-23 21:34N 37°49' W 122°20'4 3.6
2015-Mar-23 20:33N 37°46' W 122°23'0 0.1
2015-Mar-23 19:33N 37°46' W 122°23'0 0.0
2015-Mar-23 18:33N 37°46' W 122°23'0 0.2
2015-Mar-23 17:32N 37°46' W 122°23'5 4.8
2015-Mar-23 16:32N 37°49' W 122°19'2 1.6
2015-Mar-23 15:33N 37°49' W 122°20'2 1.5
2015-Mar-23 14:31N 37°49' W 122°19'0 0.0
2015-Mar-23 13:31N 37°49' W 122°19'0 0.0
2015-Mar-23 12:28N 37°49' W 122°19'0 0.0
2015-Mar-23 11:31N 37°49' W 122°19'0 0.0
2015-Mar-23 10:31N 37°49' W 122°19'0 0.0
2015-Mar-23 09:31N 37°49' W 122°19'0 0.0
2015-Mar-23 08:31N 37°49' W 122°19'0 0.0
2015-Mar-23 07:31N 37°49' W 122°19'0 0.0
2015-Mar-23 06:31N 37°49' W 122°19'0 0.0
2015-Mar-23 05:31N 37°49' W 122°19'0 0.0
2015-Mar-23 04:31N 37°49' W 122°19'0 0.0
2015-Mar-23 03:31N 37°49' W 122°19'0 0.0
2015-Mar-23 02:31N 37°49' W 122°19'1 0.8
2015-Mar-23 01:32N 37°49' W 122°20'0 0.2
2015-Mar-23 00:33N 37°49' W 122°19'0 0.3
2015-Mar-22 23:32N 37°49' W 122°20'1 1.0
2015-Mar-22 22:32N 37°49' W 122°19'0 0.0
2015-Mar-22 21:29N 37°49' W 122°19'0 0.0
2015-Mar-22 20:32N 37°49' W 122°19'0 0.0
2015-Mar-22 19:32N 37°49' W 122°19'0 0.0
2015-Mar-22 18:32N 37°49' W 122°19'0 0.0
2015-Mar-22 17:32N 37°49' W 122°19'2 2.1
2015-Mar-22 16:32N 37°48' W 122°17'2 1.7
2015-Mar-22 15:34N 37°48' W 122°19'1 1.0
2015-Mar-22 14:31N 37°49' W 122°19'1 0.5
2015-Mar-22 13:31N 37°49' W 122°19'0 0.0
2015-Mar-22 12:31N 37°49' W 122°19'0 0.0
2015-Mar-22 11:28N 37°49' W 122°19'0 0.0
2015-Mar-22 10:28N 37°49' W 122°19'0 0.0
2015-Mar-22 09:31N 37°49' W 122°19'0 0.0
2015-Mar-22 08:31N 37°49' W 122°19'0 0.0
2015-Mar-22 07:31N 37°49' W 122°19'0 0.0
2015-Mar-22 06:28N 37°49' W 122°19'0 0.0
2015-Mar-22 05:28N 37°49' W 122°19'0 0.0
2015-Mar-22 04:28N 37°49' W 122°19'0 0.0
2015-Mar-22 03:28N 37°49' W 122°19'0 0.0
2015-Mar-22 02:31N 37°49' W 122°19'0 0.0
2015-Mar-22 01:28N 37°49' W 122°19'3 3.8
2015-Mar-22 00:34N 37°49' W 122°23'1 0.9
2015-Mar-21 23:33N 37°48' W 122°24'4 4.0
2015-Mar-21 22:29N 37°49' W 122°19'0 0.0
2015-Mar-21 21:32N 37°49' W 122°19'0 0.0
2015-Mar-21 20:32N 37°49' W 122°19'0 0.0
2015-Mar-21 19:32N 37°49' W 122°19'0 0.0
2015-Mar-21 18:32N 37°49' W 122°19'0 0.0
2015-Mar-21 17:32N 37°49' W 122°19'0 0.0
2015-Mar-21 16:32N 37°49' W 122°19'0 0.0
2015-Mar-21 15:29N 37°49' W 122°19'1 1.3
2015-Mar-21 14:33N 37°49' W 122°20'1 0.8
2015-Mar-21 13:33N 37°48' W 122°20'0 0.3
2015-Mar-21 12:33N 37°48' W 122°20'0 0.4
2015-Mar-21 11:32N 37°48' W 122°21'0 0.0
2015-Mar-21 10:32N 37°48' W 122°21'0 0.3
2015-Mar-21 09:33N 37°49' W 122°20'1 1.3
2015-Mar-21 08:33N 37°49' W 122°19'0 0.2
2015-Mar-21 07:31N 37°49' W 122°19'0 0.0
2015-Mar-21 06:31N 37°49' W 122°19'0 0.0
2015-Mar-21 05:31N 37°49' W 122°19'6 6.7
2015-Mar-21 04:33N 37°53' W 122°25'2 2.0
2015-Mar-21 03:29N 37°56' W 122°25'1 0.8
2015-Mar-21 02:33N 37°55' W 122°25'6 6.5
2015-Mar-21 01:33N 38°01' W 122°23'14 1.3
2015-Mar-20 15:09N 38°03' W 122°06'3 5.0
2015-Mar-20 14:34N 38°02' W 122°09'5 5.2
2015-Mar-20 13:34N 38°04' W 122°15'6 6.0
2015-Mar-20 12:34N 38°02' W 122°23'7 6.9
2015-Mar-20 11:34N 37°56' W 122°27'6 6.2
2015-Mar-20 10:34N 37°50' W 122°28'2 2.0
2015-Mar-20 09:29N 37°48' W 122°30'4 4.0
2015-Mar-20 08:33N 37°49' W 122°25'5 5.3
2015-Mar-20 07:33N 37°49' W 122°19'0 0.0
2015-Mar-20 06:30N 37°49' W 122°19'0 0.0
2015-Mar-20 05:30N 37°49' W 122°19'0 0.0
2015-Mar-20 04:33N 37°49' W 122°19'0 0.0
2015-Mar-20 03:33N 37°49' W 122°19'0 0.0
2015-Mar-20 02:33N 37°49' W 122°19'2 1.6
2015-Mar-20 01:32N 37°48' W 122°20'1 1.2
2015-Mar-20 00:33N 37°48' W 122°22'2 1.9
2015-Mar-19 23:33N 37°48' W 122°19'0 0.3
2015-Mar-19 22:33N 37°48' W 122°19'2 1.6
2015-Mar-19 21:33N 37°49' W 122°19'0 0.0
2015-Mar-19 20:33N 37°49' W 122°19'0 0.0
2015-Mar-19 19:33N 37°49' W 122°19'0 0.0
2015-Mar-19 18:33N 37°49' W 122°19'0 0.0
2015-Mar-19 17:21N 37°49' W 122°19'0 0.0
2015-Mar-19 16:33N 37°49' W 122°19'0 0.0
2015-Mar-19 15:33N 37°49' W 122°19'1 0.7
2015-Mar-19 14:32N 37°49' W 122°19'1 1.2
2015-Mar-19 13:33N 37°48' W 122°21'1 0.9
2015-Mar-19 12:33N 37°49' W 122°20'1 1.0
2015-Mar-19 11:31N 37°49' W 122°19'0 0.0
2015-Mar-19 10:31N 37°49' W 122°19'2 1.8
2015-Mar-19 09:31N 37°48' W 122°18'2 2.2
2015-Mar-19 08:33N 37°48' W 122°20'2 1.8
2015-Mar-19 07:33N 37°49' W 122°19'0 0.0
2015-Mar-19 06:33N 37°49' W 122°19'0 0.0
2015-Mar-19 05:33N 37°49' W 122°19'0 0.0
2015-Mar-19 04:33N 37°49' W 122°19'0 0.0
2015-Mar-19 03:33N 37°49' W 122°19'0 0.0
2015-Mar-19 02:33N 37°49' W 122°19'0 0.0
2015-Mar-19 01:33N 37°49' W 122°19'0 0.1
2015-Mar-19 00:32N 37°49' W 122°19'1 1.4
2015-Mar-18 23:33N 37°48' W 122°19'3 3.0
2015-Mar-18 22:34N 37°48' W 122°23'2 2.3
2015-Mar-18 21:30N 37°51' W 122°24'5 4.7
2015-Mar-18 20:31N 37°55' W 122°22'1 1.0
2015-Mar-18 19:33N 37°54' W 122°22'3 2.9
2015-Mar-18 18:33N 37°54' W 122°25'3 2.8
2015-Mar-18 17:34N 37°55' W 122°22'3 2.6
2015-Mar-18 16:34N 37°54' W 122°25'7 6.3
2015-Mar-18 15:29N 37°49' W 122°19'0 0.0
2015-Mar-18 14:32N 37°49' W 122°19'0 0.0
2015-Mar-18 13:32N 37°49' W 122°19'0 0.0
2015-Mar-18 12:32N 37°49' W 122°19'0 0.0
2015-Mar-18 11:32N 37°49' W 122°19'0 0.0
2015-Mar-18 10:32N 37°49' W 122°19'0 0.0
2015-Mar-18 09:32N 37°49' W 122°19'0 0.0
2015-Mar-18 08:32N 37°49' W 122°19'0 0.0
2015-Mar-18 07:32N 37°49' W 122°19'0 0.0
2015-Mar-18 06:32N 37°49' W 122°19'0 0.0
2015-Mar-18 05:32N 37°49' W 122°19'0 0.0
2015-Mar-18 04:29N 37°49' W 122°19'0 0.0
2015-Mar-18 03:32N 37°49' W 122°19'0 0.4
2015-Mar-18 02:31N 37°49' W 122°19'3 3.0
2015-Mar-18 01:33N 37°48' W 122°22'3 2.9
2015-Mar-18 00:32N 37°49' W 122°19'2 1.7
2015-Mar-17 23:34N 37°48' W 122°21'2 2.0
2015-Mar-17 22:33N 37°49' W 122°19'0 0.0
2015-Mar-17 21:33N 37°49' W 122°19'0 0.0
2015-Mar-17 20:33N 37°49' W 122°19'0 0.0
2015-Mar-17 19:33N 37°49' W 122°19'0 0.0
2015-Mar-17 18:33N 37°49' W 122°19'0 0.0
2015-Mar-17 17:33N 37°49' W 122°19'0 0.0
2015-Mar-17 16:33N 37°49' W 122°19'0 0.0
2015-Mar-17 15:34N 37°49' W 122°19'6 6.3
2015-Mar-17 14:33N 37°54' W 122°23'1 0.7
2015-Mar-17 13:33N 37°55' W 122°24'7 6.6
2015-Mar-17 12:33N 37°49' W 122°21'2 1.7
2015-Mar-17 11:31N 37°49' W 122°19'0 0.0
2015-Mar-17 10:31N 37°49' W 122°19'0 0.0
2015-Mar-17 09:31N 37°49' W 122°19'0 0.0
2015-Mar-17 08:31N 37°49' W 122°19'0 0.0
2015-Mar-17 07:31N 37°49' W 122°19'0 0.0
2015-Mar-17 06:31N 37°49' W 122°19'0 0.0
2015-Mar-17 05:28N 37°49' W 122°19'0 0.0
2015-Mar-17 04:31N 37°49' W 122°19'0 0.0
2015-Mar-17 03:31N 37°49' W 122°19'0 0.0
2015-Mar-17 02:31N 37°49' W 122°19'0 0.0
2015-Mar-17 01:31N 37°49' W 122°19'0 0.0
2015-Mar-17 00:31N 37°49' W 122°19'0 0.0
2015-Mar-16 23:28N 37°49' W 122°19'0 0.0
2015-Mar-16 22:31N 37°49' W 122°19'0 0.0
2015-Mar-16 21:31N 37°49' W 122°19'0 0.0
2015-Mar-16 20:31N 37°49' W 122°19'2 2.3
2015-Mar-16 19:33N 37°50' W 122°22'  
Track history (hours):
 
Tides and Currents Weather Stations Pressure Air Temp Water Temp Dewpoint Dewpoint Depression Visibility Wind Speed Wind Dir Waves Ship Positions

Sandra Hugh

Owner: Sortwell Inc., DBA AmNav Maritime Services, Oakland, CA. More information available from US FCC via Universal Licensing System and Coast Guard Vessel Documentation Center.

Last reported at 2015-Mar-26 18:32 UTC. Time now 2015-Mar-26 19:15 UTC.
Position N 37°49' W 122°19'.

Length 24 m; draft 4.9 m.

Type: Tug. MMSI: 367305920.

Date/timePositionNaut miles runAvg speedWind from/ knotsBaromVisibWave heightAir tempDewpointWater temp
2015-Mar-26 18:32N 37°49' W 122°19'0 0.0
2015-Mar-26 17:32N 37°49' W 122°19'0 0.0
2015-Mar-26 16:29N 37°49' W 122°19'0 0.0
2015-Mar-26 15:32N 37°49' W 122°19'0 0.0
2015-Mar-26 14:29N 37°49' W 122°19'0 0.0
2015-Mar-26 13:26N 37°49' W 122°19'0 0.0
2015-Mar-26 12:32N 37°49' W 122°19'0 0.0
2015-Mar-26 11:32N 37°49' W 122°19'0 0.0
2015-Mar-26 10:32N 37°49' W 122°19'0 0.0
2015-Mar-26 09:32N 37°49' W 122°19'0 0.0
2015-Mar-26 08:29N 37°49' W 122°19'0 0.0
2015-Mar-26 07:32N 37°49' W 122°19'0 0.0
2015-Mar-26 06:32N 37°49' W 122°19'0 0.0
2015-Mar-26 05:32N 37°49' W 122°19'0 0.0
2015-Mar-26 04:26N 37°49' W 122°19'0 0.0
2015-Mar-26 03:23N 37°49' W 122°19'0 0.4
2015-Mar-26 02:32N 37°49' W 122°19'0 0.0
2015-Mar-26 01:32N 37°49' W 122°19'0 0.4
2015-Mar-26 00:33N 37°49' W 122°19'0 0.0
2015-Mar-25 23:24N 37°49' W 122°19'0 0.0
2015-Mar-25 22:24N 37°49' W 122°19'0 0.0
2015-Mar-25 21:30N 37°49' W 122°19'0 0.0
2015-Mar-25 20:30N 37°49' W 122°19'0 0.0
2015-Mar-25 19:24N 37°49' W 122°19'0 0.0
2015-Mar-25 18:33N 37°49' W 122°19'0 0.0
2015-Mar-25 17:30N 37°49' W 122°19'0 0.0
2015-Mar-25 16:33N 37°49' W 122°19'0 0.0
2015-Mar-25 15:33N 37°49' W 122°19'0 0.0
2015-Mar-25 14:33N 37°49' W 122°19'0 0.0
2015-Mar-25 13:33N 37°49' W 122°19'0 0.0
2015-Mar-25 12:33N 37°49' W 122°19'0 0.0
2015-Mar-25 11:33N 37°49' W 122°19'0 0.0
2015-Mar-25 10:33N 37°49' W 122°19'0 0.0
2015-Mar-25 09:33N 37°49' W 122°19'0 0.0
2015-Mar-25 08:33N 37°49' W 122°19'0 0.0
2015-Mar-25 07:30N 37°49' W 122°19'0 0.0
2015-Mar-25 06:33N 37°49' W 122°19'0 0.0
2015-Mar-25 05:33N 37°49' W 122°19'0 0.0
2015-Mar-25 04:33N 37°49' W 122°19'0 0.0
2015-Mar-25 03:33N 37°49' W 122°19'0 0.0
2015-Mar-25 02:30N 37°49' W 122°19'0 0.0
2015-Mar-25 01:30N 37°49' W 122°19'0 0.3
2015-Mar-25 00:33N 37°49' W 122°19'2 1.6
2015-Mar-24 23:33N 37°48' W 122°21'2 1.8
2015-Mar-24 22:33N 37°49' W 122°19'0 0.0
2015-Mar-24 21:33N 37°49' W 122°19'0 0.0
2015-Mar-24 20:33N 37°49' W 122°19'0 0.0
2015-Mar-24 19:33N 37°49' W 122°19'0 0.0
2015-Mar-24 18:33N 37°49' W 122°19'0 0.0
2015-Mar-24 17:33N 37°49' W 122°19'3 2.8
2015-Mar-24 16:33N 37°50' W 122°22'5 4.8
2015-Mar-24 15:30N 37°55' W 122°22'1 0.8
2015-Mar-24 14:33N 37°54' W 122°22'3 2.9
2015-Mar-24 13:33N 37°53' W 122°25'2 1.8
2015-Mar-24 12:31N 37°54' W 122°23'0 0.0
2015-Mar-24 11:28N 37°54' W 122°23'0 0.0
2015-Mar-24 10:32N 37°54' W 122°23'1 1.2
2015-Mar-24 09:33N 37°54' W 122°22'0 0.0
2015-Mar-24 08:33N 37°54' W 122°22'6 5.9
2015-Mar-24 07:33N 37°49' W 122°20'1 1.1
2015-Mar-24 06:31N 37°49' W 122°19'0 0.0
2015-Mar-24 05:31N 37°49' W 122°19'0 0.0
2015-Mar-24 04:28N 37°49' W 122°19'3 2.8
2015-Mar-24 03:33N 37°50' W 122°22'4 4.4
2015-Mar-24 02:33N 37°54' W 122°23'1 0.7
2015-Mar-24 01:33N 37°55' W 122°22'5 5.5
2015-Mar-24 00:33N 37°49' W 122°21'2 2.0
2015-Mar-23 23:33N 37°49' W 122°19'0 0.0
2015-Mar-23 22:33N 37°49' W 122°19'1 1.2
2015-Mar-23 21:34N 37°49' W 122°20'4 3.6
2015-Mar-23 20:33N 37°46' W 122°23'0 0.1
2015-Mar-23 19:33N 37°46' W 122°23'0 0.0
2015-Mar-23 18:33N 37°46' W 122°23'0 0.2
2015-Mar-23 17:32N 37°46' W 122°23'5 4.8
2015-Mar-23 16:32N 37°49' W 122°19'2 1.6
2015-Mar-23 15:33N 37°49' W 122°20'2 1.5
2015-Mar-23 14:31N 37°49' W 122°19'0 0.0
2015-Mar-23 13:31N 37°49' W 122°19'0 0.0
2015-Mar-23 12:28N 37°49' W 122°19'0 0.0
2015-Mar-23 11:31N 37°49' W 122°19'0 0.0
2015-Mar-23 10:31N 37°49' W 122°19'0 0.0
2015-Mar-23 09:31N 37°49' W 122°19'0 0.0
2015-Mar-23 08:31N 37°49' W 122°19'0 0.0
2015-Mar-23 07:31N 37°49' W 122°19'0 0.0
2015-Mar-23 06:31N 37°49' W 122°19'0 0.0
2015-Mar-23 05:31N 37°49' W 122°19'0 0.0
2015-Mar-23 04:31N 37°49' W 122°19'0 0.0
2015-Mar-23 03:31N 37°49' W 122°19'0 0.0
2015-Mar-23 02:31N 37°49' W 122°19'1 0.8
2015-Mar-23 01:32N 37°49' W 122°20'0 0.2
2015-Mar-23 00:33N 37°49' W 122°19'0 0.3
2015-Mar-22 23:32N 37°49' W 122°20'1 1.0
2015-Mar-22 22:32N 37°49' W 122°19'0 0.0
2015-Mar-22 21:29N 37°49' W 122°19'0 0.0
2015-Mar-22 20:32N 37°49' W 122°19'0 0.0
2015-Mar-22 19:32N 37°49' W 122°19'0 0.0
2015-Mar-22 18:32N 37°49' W 122°19'0 0.0
2015-Mar-22 17:32N 37°49' W 122°19'2 2.1
2015-Mar-22 16:32N 37°48' W 122°17'2 1.7
2015-Mar-22 15:34N 37°48' W 122°19'1 1.0
2015-Mar-22 14:31N 37°49' W 122°19'1 0.5
2015-Mar-22 13:31N 37°49' W 122°19'0 0.0
2015-Mar-22 12:31N 37°49' W 122°19'0 0.0
2015-Mar-22 11:28N 37°49' W 122°19'0 0.0
2015-Mar-22 10:28N 37°49' W 122°19'0 0.0
2015-Mar-22 09:31N 37°49' W 122°19'0 0.0
2015-Mar-22 08:31N 37°49' W 122°19'0 0.0
2015-Mar-22 07:31N 37°49' W 122°19'0 0.0
2015-Mar-22 06:28N 37°49' W 122°19'0 0.0
2015-Mar-22 05:28N 37°49' W 122°19'0 0.0
2015-Mar-22 04:28N 37°49' W 122°19'0 0.0
2015-Mar-22 03:28N 37°49' W 122°19'0 0.0
2015-Mar-22 02:31N 37°49' W 122°19'0 0.0
2015-Mar-22 01:28N 37°49' W 122°19'3 3.8
2015-Mar-22 00:34N 37°49' W 122°23'1 0.9
2015-Mar-21 23:33N 37°48' W 122°24'4 4.0
2015-Mar-21 22:29N 37°49' W 122°19'0 0.0
2015-Mar-21 21:32N 37°49' W 122°19'0 0.0
2015-Mar-21 20:32N 37°49' W 122°19'0 0.0
2015-Mar-21 19:32N 37°49' W 122°19'0 0.0
2015-Mar-21 18:32N 37°49' W 122°19'0 0.0
2015-Mar-21 17:32N 37°49' W 122°19'0 0.0
2015-Mar-21 16:32N 37°49' W 122°19'0 0.0
2015-Mar-21 15:29N 37°49' W 122°19'1 1.3
2015-Mar-21 14:33N 37°49' W 122°20'1 0.8
2015-Mar-21 13:33N 37°48' W 122°20'0 0.3
2015-Mar-21 12:33N 37°48' W 122°20'0 0.4
2015-Mar-21 11:32N 37°48' W 122°21'0 0.0
2015-Mar-21 10:32N 37°48' W 122°21'0 0.3
2015-Mar-21 09:33N 37°49' W 122°20'1 1.3
2015-Mar-21 08:33N 37°49' W 122°19'0 0.2
2015-Mar-21 07:31N 37°49' W 122°19'0 0.0
2015-Mar-21 06:31N 37°49' W 122°19'0 0.0
2015-Mar-21 05:31N 37°49' W 122°19'6 6.7
2015-Mar-21 04:33N 37°53' W 122°25'2 2.0
2015-Mar-21 03:29N 37°56' W 122°25'1 0.8
2015-Mar-21 02:33N 37°55' W 122°25'6 6.5
2015-Mar-21 01:33N 38°01' W 122°23'14 1.3
2015-Mar-20 15:09N 38°03' W 122°06'3 5.0
2015-Mar-20 14:34N 38°02' W 122°09'5 5.2
2015-Mar-20 13:34N 38°04' W 122°15'6 6.0
2015-Mar-20 12:34N 38°02' W 122°23'7 6.9
2015-Mar-20 11:34N 37°56' W 122°27'6 6.2
2015-Mar-20 10:34N 37°50' W 122°28'2 2.0
2015-Mar-20 09:29N 37°48' W 122°30'4 4.0
2015-Mar-20 08:33N 37°49' W 122°25'5 5.3
2015-Mar-20 07:33N 37°49' W 122°19'0 0.0
2015-Mar-20 06:30N 37°49' W 122°19'0 0.0
2015-Mar-20 05:30N 37°49' W 122°19'0 0.0
2015-Mar-20 04:33N 37°49' W 122°19'0 0.0
2015-Mar-20 03:33N 37°49' W 122°19'0 0.0
2015-Mar-20 02:33N 37°49' W 122°19'2 1.6
2015-Mar-20 01:32N 37°48' W 122°20'1 1.2
2015-Mar-20 00:33N 37°48' W 122°22'2 1.9
2015-Mar-19 23:33N 37°48' W 122°19'0 0.3
2015-Mar-19 22:33N 37°48' W 122°19'2 1.6
2015-Mar-19 21:33N 37°49' W 122°19'0 0.0
2015-Mar-19 20:33N 37°49' W 122°19'0 0.0
2015-Mar-19 19:33N 37°49' W 122°19'0 0.0
2015-Mar-19 18:33N 37°49' W 122°19'0 0.0
2015-Mar-19 17:21N 37°49' W 122°19'0 0.0
2015-Mar-19 16:33N 37°49' W 122°19'0 0.0
2015-Mar-19 15:33N 37°49' W 122°19'1 0.7
2015-Mar-19 14:32N 37°49' W 122°19'1 1.2
2015-Mar-19 13:33N 37°48' W 122°21'1 0.9
2015-Mar-19 12:33N 37°49' W 122°20'1 1.0
2015-Mar-19 11:31N 37°49' W 122°19'0 0.0
2015-Mar-19 10:31N 37°49' W 122°19'2 1.8
2015-Mar-19 09:31N 37°48' W 122°18'2 2.2
2015-Mar-19 08:33N 37°48' W 122°20'2 1.8
2015-Mar-19 07:33N 37°49' W 122°19'0 0.0
2015-Mar-19 06:33N 37°49' W 122°19'0 0.0
2015-Mar-19 05:33N 37°49' W 122°19'0 0.0
2015-Mar-19 04:33N 37°49' W 122°19'0 0.0
2015-Mar-19 03:33N 37°49' W 122°19'0 0.0
2015-Mar-19 02:33N 37°49' W 122°19'0 0.0
2015-Mar-19 01:33N 37°49' W 122°19'0 0.1
2015-Mar-19 00:32N 37°49' W 122°19'1 1.4
2015-Mar-18 23:33N 37°48' W 122°19'3 3.0
2015-Mar-18 22:34N 37°48' W 122°23'2 2.3
2015-Mar-18 21:30N 37°51' W 122°24'5 4.7
2015-Mar-18 20:31N 37°55' W 122°22'1 1.0
2015-Mar-18 19:33N 37°54' W 122°22'3 2.9
2015-Mar-18 18:33N 37°54' W 122°25'3 2.8
2015-Mar-18 17:34N 37°55' W 122°22'3 2.6
2015-Mar-18 16:34N 37°54' W 122°25'7 6.3
2015-Mar-18 15:29N 37°49' W 122°19'0 0.0
2015-Mar-18 14:32N 37°49' W 122°19'0 0.0
2015-Mar-18 13:32N 37°49' W 122°19'0 0.0
2015-Mar-18 12:32N 37°49' W 122°19'0 0.0
2015-Mar-18 11:32N 37°49' W 122°19'0 0.0
2015-Mar-18 10:32N 37°49' W 122°19'0 0.0
2015-Mar-18 09:32N 37°49' W 122°19'0 0.0
2015-Mar-18 08:32N 37°49' W 122°19'0 0.0
2015-Mar-18 07:32N 37°49' W 122°19'0 0.0
2015-Mar-18 06:32N 37°49' W 122°19'0 0.0
2015-Mar-18 05:32N 37°49' W 122°19'0 0.0
2015-Mar-18 04:29N 37°49' W 122°19'0 0.0
2015-Mar-18 03:32N 37°49' W 122°19'0 0.4
2015-Mar-18 02:31N 37°49' W 122°19'3 3.0
2015-Mar-18 01:33N 37°48' W 122°22'3 2.9
2015-Mar-18 00:32N 37°49' W 122°19'2 1.7
2015-Mar-17 23:34N 37°48' W 122°21'2 2.0
2015-Mar-17 22:33N 37°49' W 122°19'0 0.0
2015-Mar-17 21:33N 37°49' W 122°19'0 0.0
2015-Mar-17 20:33N 37°49' W 122°19'0 0.0
2015-Mar-17 19:33N 37°49' W 122°19'0 0.0
2015-Mar-17 18:33N 37°49' W 122°19'0 0.0
2015-Mar-17 17:33N 37°49' W 122°19'0 0.0
2015-Mar-17 16:33N 37°49' W 122°19'0 0.0
2015-Mar-17 15:34N 37°49' W 122°19'6 6.3
2015-Mar-17 14:33N 37°54' W 122°23'1 0.7
2015-Mar-17 13:33N 37°55' W 122°24'7 6.6
2015-Mar-17 12:33N 37°49' W 122°21'2 1.7
2015-Mar-17 11:31N 37°49' W 122°19'0 0.0
2015-Mar-17 10:31N 37°49' W 122°19'0 0.0
2015-Mar-17 09:31N 37°49' W 122°19'0 0.0
2015-Mar-17 08:31N 37°49' W 122°19'0 0.0
2015-Mar-17 07:31N 37°49' W 122°19'0 0.0
2015-Mar-17 06:31N 37°49' W 122°19'0 0.0
2015-Mar-17 05:28N 37°49' W 122°19'0 0.0
2015-Mar-17 04:31N 37°49' W 122°19'0 0.0
2015-Mar-17 03:31N 37°49' W 122°19'0 0.0
2015-Mar-17 02:31N 37°49' W 122°19'0 0.0
2015-Mar-17 01:31N 37°49' W 122°19'0 0.0
2015-Mar-17 00:31N 37°49' W 122°19'0 0.0
2015-Mar-16 23:28N 37°49' W 122°19'0 0.0
2015-Mar-16 22:31N 37°49' W 122°19'0 0.0
2015-Mar-16 21:31N 37°49' W 122°19'0 0.0
2015-Mar-16 20:31N 37°49' W 122°19'2 2.3
2015-Mar-16 19:33N 37°50' W 122°22'  

Dump ship's entire track history